createdAt,value
2019-05-14T00:02:02.859Z,102549.13
2019-05-14T00:04:34.560Z,102542.26
2019-05-14T00:07:05.803Z,102548.52
2019-05-14T00:09:37.883Z,102532.69
2019-05-14T00:12:11.386Z,102535.20
2019-05-14T00:14:43.822Z,102529.62
2019-05-14T00:17:14.988Z,102535.85
2019-05-14T00:19:46.083Z,102539.61
2019-05-14T00:22:17.660Z,102541.48
2019-05-14T00:24:51.796Z,102539.06
2019-05-14T00:27:22.243Z,102532.16
2019-05-14T00:29:53.525Z,102532.55
2019-05-14T00:32:25.048Z,102536.66
2019-05-14T00:34:56.600Z,102529.26
2019-05-14T00:37:27.879Z,102528.13
2019-05-14T00:40:01.133Z,102530.30
2019-05-14T00:42:31.972Z,102530.98
2019-05-14T00:45:03.287Z,102531.20
2019-05-14T00:47:34.952Z,102529.94
2019-05-14T00:50:11.113Z,102525.50
2019-05-14T00:52:46.107Z,102522.38
2019-05-14T00:55:15.018Z,102519.31
2019-05-14T00:57:46.427Z,102516.33
2019-05-14T01:00:19.166Z,102517.63
2019-05-14T01:02:51.831Z,102516.62
2019-05-14T01:05:23.226Z,102517.05
2019-05-14T01:07:55.294Z,102509.87
2019-05-14T01:10:26.477Z,102514.36
2019-05-14T01:12:57.482Z,102512.47
2019-05-14T01:15:29.043Z,102515.97
2019-05-14T01:18:02.245Z,102510.45
2019-05-14T01:20:33.732Z,102511.84
2019-05-14T01:23:05.375Z,102518.31
2019-05-14T01:25:36.669Z,102511.03
2019-05-14T01:28:07.898Z,102509.70
2019-05-14T01:30:41.130Z,102510.39
2019-05-14T01:33:12.563Z,102505.91
2019-05-14T01:35:43.882Z,102503.50
2019-05-14T01:38:15.473Z,102505.56
2019-05-14T01:40:46.903Z,102507.46
2019-05-14T01:43:18.467Z,102499.95
2019-05-14T01:45:52.191Z,102499.87
2019-05-14T01:48:22.798Z,102506.19
2019-05-14T01:50:54.570Z,102510.75
2019-05-14T01:53:25.773Z,102509.06
2019-05-14T01:55:56.908Z,102499.42
2019-05-14T01:58:28.141Z,102501.86
2019-05-14T02:01:01.739Z,102505.80
2019-05-14T02:03:32.505Z,102502.70
2019-05-14T02:06:04.154Z,102502.70
2019-05-14T02:08:35.783Z,102504.14
2019-05-14T02:11:06.779Z,102499.27
2019-05-14T02:13:38.057Z,102505.58
2019-05-14T02:16:12.836Z,102495.98
2019-05-14T02:18:42.857Z,102497.53
2019-05-14T02:21:14.521Z,102494.63
2019-05-14T02:23:45.816Z,102500.55
2019-05-14T02:26:17.351Z,102498.49
2019-05-14T02:28:51.221Z,102493.50
2019-05-14T02:31:21.624Z,102497.13
2019-05-14T02:33:53.183Z,102499.40
2019-05-14T02:36:24.195Z,102495.16
2019-05-14T02:38:55.601Z,102500.02
2019-05-14T02:41:29.791Z,102491.65
2019-05-14T02:43:59.607Z,102495.80
2019-05-14T02:46:31.280Z,102493.43
2019-05-14T02:49:03.247Z,102495.20
2019-05-14T02:51:38.914Z,102493.56
2019-05-14T02:54:10.208Z,102492.10
2019-05-14T02:56:41.721Z,102496.95
2019-05-14T02:59:13.154Z,102493.32
2019-05-14T03:01:44.438Z,102499.38
2019-05-14T03:04:15.896Z,102499.45
2019-05-14T03:06:49.894Z,102501.47
2019-05-14T03:09:20.793Z,102497.61
2019-05-14T03:11:51.999Z,102494.50
2019-05-14T03:14:23.038Z,102488.96
2019-05-14T03:16:54.194Z,102488.38
2019-05-14T03:19:25.632Z,102483.84
2019-05-14T03:21:59.961Z,102490.30
2019-05-14T03:24:29.779Z,102492.34
2019-05-14T03:27:00.936Z,102504.23
2019-05-14T03:29:33.315Z,102509.06
2019-05-14T03:32:05.040Z,102505.02
2019-05-14T03:34:42.879Z,102509.59
2019-05-14T03:37:12.754Z,102510.75
2019-05-14T03:39:44.307Z,102513.51
2019-05-14T03:42:19.025Z,102512.74
2019-05-14T03:44:49.156Z,102509.39
2019-05-14T03:47:21.041Z,102505.77
2019-05-14T03:49:54.688Z,102502.22
2019-05-14T03:52:29.221Z,102508.66
2019-05-14T03:55:04.429Z,102510.58
2019-05-14T03:57:34.403Z,102515.50
2019-05-14T04:00:10.320Z,102513.62
2019-05-14T04:02:40.881Z,102516.06
2019-05-14T04:05:12.380Z,102514.45
2019-05-14T04:07:49.924Z,102511.66
2019-05-14T04:10:19.729Z,102523.03
2019-05-14T04:12:54.143Z,102517.84
2019-05-14T04:15:30.139Z,102524.74
2019-05-14T04:18:02.483Z,102519.51
2019-05-14T04:20:39.113Z,102516.88
2019-05-14T04:23:10.427Z,102517.72
2019-05-14T04:25:43.159Z,102514.84
2019-05-14T04:28:19.314Z,102513.09
2019-05-14T04:30:54.429Z,102508.68
2019-05-14T04:33:30.379Z,102512.27
2019-05-14T04:36:00.829Z,102503.88
2019-05-14T04:38:32.828Z,102505.34
2019-05-14T04:41:04.557Z,102499.92
2019-05-14T04:43:40.025Z,102495.28
2019-05-14T04:46:11.247Z,102494.67
2019-05-14T04:48:44.331Z,102497.68
2019-05-14T04:51:19.603Z,102490.83
2019-05-14T04:53:50.425Z,102487.27
2019-05-14T04:56:22.161Z,102487.38
2019-05-14T04:58:53.517Z,102490.47
2019-05-14T05:01:29.258Z,102493.77
2019-05-14T05:03:59.414Z,102494.20
2019-05-14T05:06:31.328Z,102492.25
2019-05-14T05:09:02.880Z,102489.56
2019-05-14T05:11:34.084Z,102489.88
2019-05-14T05:14:08.601Z,102483.41
2019-05-14T05:16:39.305Z,102482.59
2019-05-14T05:19:10.852Z,102475.62
2019-05-14T05:21:42.339Z,102481.33
2019-05-14T05:24:13.993Z,102478.54
2019-05-14T05:26:45.601Z,102481.57
2019-05-14T05:29:18.625Z,102481.01
2019-05-14T05:31:51.635Z,102481.69
2019-05-14T05:34:24.131Z,102477.70
2019-05-14T05:36:55.723Z,102477.91
2019-05-14T05:39:28.266Z,102470.80
2019-05-14T05:41:59.705Z,102470.81
2019-05-14T05:44:31.017Z,102471.88
2019-05-14T05:47:02.573Z,102485.54
2019-05-14T05:49:33.780Z,102480.31
2019-05-14T05:52:08.601Z,102476.54
2019-05-14T05:54:39.563Z,102473.09
2019-05-14T05:57:11.420Z,102474.18
2019-05-14T05:59:42.446Z,102467.09
2019-05-14T06:02:14.058Z,102467.57
2019-05-14T06:04:47.950Z,102474.35
2019-05-14T06:07:20.457Z,102471.13
2019-05-14T06:09:51.718Z,102473.45
2019-05-14T06:12:23.284Z,102470.31
2019-05-14T06:14:55.296Z,102477.80
2019-05-14T06:17:28.520Z,102481.41
2019-05-14T06:20:04.520Z,102484.40
2019-05-14T06:22:53.180Z,102486.36
2019-05-14T06:25:40.077Z,102489.59
2019-05-14T06:28:11.390Z,102484.88
2019-05-14T06:30:48.361Z,102481.73
2019-05-14T06:33:21.938Z,102483.14
2019-05-14T06:35:53.440Z,102485.80
2019-05-14T06:38:24.760Z,102485.48
2019-05-14T06:40:56.193Z,102489.48
2019-05-14T06:43:28.738Z,102480.06
2019-05-14T06:46:00.680Z,102480.58
2019-05-14T06:48:34.807Z,102477.23
2019-05-14T06:51:04.792Z,102480.58
2019-05-14T06:53:39.113Z,102476.95
2019-05-14T06:56:10.027Z,102473.30
2019-05-14T06:58:42.418Z,102478.25
2019-05-14T07:01:13.256Z,102474.53
2019-05-14T07:03:44.747Z,102471.78
2019-05-14T07:06:18.496Z,102472.33
2019-05-14T07:08:52.638Z,102473.18
2019-05-14T07:11:23.805Z,102473.18
2019-05-14T07:13:55.197Z,102476.61
2019-05-14T07:16:28.676Z,102473.08
2019-05-14T07:19:01.026Z,102478.65
2019-05-14T07:21:32.886Z,102474.25
2019-05-14T07:24:05.707Z,102469.86
2019-05-14T07:26:39.005Z,102473.01
2019-05-14T07:29:11.527Z,102472.77
2019-05-14T07:31:43.701Z,102470.73
2019-05-14T07:34:15.080Z,102473.16
2019-05-14T07:36:49.118Z,102467.63
2019-05-14T07:39:20.812Z,102473.72
2019-05-14T07:41:53.913Z,102467.35
2019-05-14T07:44:26.791Z,102468.77
2019-05-14T07:46:58.932Z,102470.06
2019-05-14T07:49:30.516Z,102473.95
2019-05-14T07:52:04.893Z,102474.42
2019-05-14T07:54:38.862Z,102473.08
2019-05-14T07:57:09.968Z,102472.84
2019-05-14T07:59:41.933Z,102468.05
2019-05-14T08:02:13.687Z,102469.08
2019-05-14T08:04:45.451Z,102467.42
2019-05-14T08:07:18.429Z,102465.73
2019-05-14T08:09:51.401Z,102468.95
2019-05-14T08:12:22.990Z,102469.86
2019-05-14T08:15:13.457Z,102465.17
2019-05-14T08:17:30.739Z,102465.92
2019-05-14T08:20:05.134Z,102476.91
2019-05-14T08:22:39.160Z,102473.02
2019-05-14T08:25:12.937Z,102465.53
2019-05-14T08:27:48.178Z,102467.78
2019-05-14T08:30:20.493Z,102462.23
2019-05-14T08:32:53.071Z,102463.88
2019-05-14T08:35:24.809Z,102458.70
2019-05-14T08:38:07.774Z,102457.84
2019-05-14T08:40:31.576Z,102454.63
2019-05-14T08:43:03.941Z,102453.87
2019-05-14T08:45:38.883Z,102448.66
2019-05-14T08:48:12.213Z,102450.02
2019-05-14T08:50:45.269Z,102446.42
2019-05-14T08:53:18.750Z,102449.31
2019-05-14T08:55:51.826Z,102439.23
2019-05-14T08:58:23.308Z,102439.09
2019-05-14T09:00:58.361Z,102441.45
2019-05-14T09:03:29.116Z,102444.05
2019-05-14T09:06:01.189Z,102436.41
2019-05-14T09:08:33.909Z,102444.97
2019-05-14T09:11:06.366Z,102440.70
2019-05-14T09:13:38.481Z,102431.34
2019-05-14T09:16:10.719Z,102433.70
2019-05-14T09:18:43.687Z,102433.41
2019-05-14T09:21:16.781Z,102427.55
2019-05-14T09:23:49.759Z,102419.19
2019-05-14T09:26:22.585Z,102414.45
2019-05-14T09:28:53.876Z,102414.66
2019-05-14T09:31:25.514Z,102418.51
2019-05-14T09:33:58.506Z,102413.11
2019-05-14T09:36:30.519Z,102409.69
2019-05-14T09:39:01.862Z,102411.33
2019-05-14T09:41:34.220Z,102413.20
2019-05-14T09:44:09.159Z,102406.48
2019-05-14T09:46:40.484Z,102406.56
2019-05-14T09:49:12.869Z,102403.56
2019-05-14T09:51:45.139Z,102407.38
2019-05-14T09:54:20.459Z,102398.34
2019-05-14T09:56:52.040Z,102393.98
2019-05-14T09:59:24.277Z,102397.40
2019-05-14T10:01:58.570Z,102388.15
2019-05-14T10:04:31.022Z,102381.03
2019-05-14T10:07:04.310Z,102375.75
2019-05-14T10:09:35.414Z,102375.13
2019-05-14T10:12:08.916Z,102389.08
2019-05-14T10:14:42.446Z,102377.22
2019-05-14T10:17:14.096Z,102366.31
2019-05-14T10:19:45.840Z,102372.95
2019-05-14T10:22:19.719Z,102368.86
2019-05-14T10:24:52.404Z,102354.91
2019-05-14T10:27:24.636Z,102362.91
2019-05-14T10:29:58.880Z,102361.74
2019-05-14T10:32:31.874Z,102364.23
2019-05-14T10:35:03.949Z,102351.22
2019-05-14T10:37:35.920Z,102340.75
2019-05-14T10:40:10.474Z,102344.85
2019-05-14T10:42:42.951Z,102344.36
2019-05-14T10:45:15.262Z,102337.44
2019-05-14T10:47:49.416Z,102331.70
2019-05-14T10:50:20.575Z,102328.75
2019-05-14T10:52:52.838Z,102335.56
2019-05-14T10:55:27.804Z,102333.48
2019-05-14T10:57:58.687Z,102335.80
2019-05-14T11:00:34.102Z,102331.77
2019-05-14T11:03:07.870Z,102324.16
2019-05-14T11:05:41.587Z,102330.19
2019-05-14T11:08:18.914Z,102322.67
2019-05-14T11:10:50.862Z,102323.51
2019-05-14T11:13:22.047Z,102318.09
2019-05-14T11:15:54.236Z,102321.29
2019-05-14T11:18:25.136Z,102319.94
2019-05-14T11:21:24.816Z,102328.92
2019-05-14T11:23:51.321Z,102318.67
2019-05-14T11:26:24.976Z,102314.84
2019-05-14T11:28:58.575Z,102302.70
2019-05-14T11:31:29.449Z,102301.09
2019-05-14T11:34:01.435Z,102294.89
2019-05-14T11:36:32.349Z,102293.59
2019-05-14T11:39:04.033Z,102286.53
2019-05-14T11:41:34.974Z,102278.39
2019-05-14T11:44:08.924Z,102285.11
2019-05-14T11:46:47.165Z,102288.84
2019-05-14T11:49:11.724Z,102284.72
2019-05-14T11:54:23.015Z,102277.70
2019-05-14T11:56:58.888Z,102267.45
2019-05-14T11:59:30.366Z,102267.03
2019-05-14T12:02:01.872Z,102267.47
2019-05-14T12:04:32.954Z,102266.98
2019-05-14T12:07:09.624Z,102263.30
2019-05-14T12:09:41.335Z,102252.68
2019-05-14T12:12:12.798Z,102254.05
2019-05-14T12:14:43.605Z,102241.69
2019-05-14T12:17:20.606Z,102246.72
2019-05-14T12:19:52.436Z,102245.59
2019-05-14T12:22:23.134Z,102243.53
2019-05-14T12:24:54.391Z,102241.51
2019-05-14T12:27:25.488Z,102234.52
2019-05-14T12:29:59.895Z,102234.24
2019-05-14T12:32:29.740Z,102226.59
2019-05-14T12:35:00.692Z,102220.42
2019-05-14T12:37:31.847Z,102217.61
2019-05-14T12:40:02.063Z,102222.73
2019-05-14T12:42:33.467Z,102216.41
2019-05-14T12:45:04.711Z,102214.89
2019-05-14T12:47:34.594Z,102211.59
2019-05-14T12:50:14.725Z,102216.45
2019-05-14T12:52:48.555Z,102214.16
2019-05-14T12:55:24.274Z,102215.98
2019-05-14T12:57:59.758Z,102210.94
2019-05-14T13:00:32.752Z,102212.03
2019-05-14T13:03:09.346Z,102205.31
2019-05-14T13:05:39.668Z,102195.09
2019-05-14T13:08:11.454Z,102204.97
2019-05-14T13:10:49.241Z,102187.53
2019-05-14T13:13:30.234Z,102197.97
2019-05-14T13:16:04.360Z,102193.56
2019-05-14T13:18:33.897Z,102199.09
2019-05-14T13:21:05.468Z,102194.12
2019-05-14T13:23:38.391Z,102198.30
2019-05-14T13:26:10.954Z,102186.48
2019-05-14T13:28:43.712Z,102185.41
2019-05-14T13:31:20.806Z,102184.86
2019-05-14T13:33:55.359Z,102174.20
2019-05-14T13:36:28.587Z,102175.92
2019-05-14T13:38:59.766Z,102169.64
2019-05-14T13:41:30.906Z,102162.50
2019-05-14T13:44:17.306Z,102162.86
2019-05-14T13:46:38.650Z,102165.70
2019-05-14T13:49:09.239Z,102168.20
2019-05-14T13:51:39.941Z,102167.91
2019-05-14T13:54:12.265Z,102156.61
2019-05-14T13:56:44.090Z,102171.89
2019-05-14T13:59:15.222Z,102155.09
2019-05-14T14:01:48.487Z,102153.87
2019-05-14T14:04:18.888Z,102155.52
2019-05-14T14:06:49.871Z,102150.33
2019-05-14T14:09:20.945Z,102144.98
2019-05-14T14:11:51.812Z,102151.53
2019-05-14T14:14:22.828Z,102140.64
2019-05-14T14:16:53.507Z,102140.03
2019-05-14T14:19:24.364Z,102129.89
2019-05-14T14:21:55.153Z,102130.34
2019-05-14T14:24:25.857Z,102123.67
2019-05-14T14:26:58.338Z,102107.84
2019-05-14T14:29:29.006Z,102103.56
2019-05-14T14:31:59.714Z,102118.49
2019-05-14T14:34:30.447Z,102112.02
2019-05-14T14:37:01.447Z,102110.05
2019-05-14T14:39:32.338Z,102109.13
2019-05-14T14:42:03.087Z,102107.30
2019-05-14T14:44:33.900Z,102110.12
2019-05-14T14:47:04.691Z,102108.13
2019-05-14T14:49:35.813Z,102099.36
2019-05-14T14:52:11.844Z,102091.43
2019-05-14T14:54:39.281Z,102088.66
2019-05-14T14:57:10.909Z,102078.86
2019-05-14T14:59:42.249Z,102084.81
2019-05-14T15:02:12.908Z,102087.11
2019-05-14T15:04:43.733Z,102091.19
2019-05-14T15:07:14.847Z,102092.64
2019-05-14T15:09:48.538Z,102096.17
2019-05-14T15:12:19.974Z,102093.67
2019-05-14T15:14:50.900Z,102094.50
2019-05-14T15:17:21.645Z,102095.94
2019-05-14T15:19:52.545Z,102097.94
2019-05-14T15:22:23.546Z,102089.49
2019-05-14T15:24:59.256Z,102090.61
2019-05-14T15:27:33.080Z,102086.14
2019-05-14T15:30:06.958Z,102091.03
2019-05-14T15:32:41.047Z,102089.22
2019-05-14T15:35:14.232Z,102083.70
2019-05-14T15:37:45.167Z,102088.47
2019-05-14T15:40:21.952Z,102090.53
2019-05-14T15:42:49.720Z,102087.27
2019-05-14T15:45:21.231Z,102087.93
2019-05-14T15:48:01.894Z,102080.00
2019-05-14T15:50:38.891Z,102080.36
2019-05-14T15:53:11.265Z,102079.30
2019-05-14T15:55:46.174Z,102080.53
2019-05-14T15:58:21.553Z,102083.45
2019-05-14T16:00:54.668Z,102085.47
2019-05-14T16:03:31.367Z,102084.20
2019-05-14T16:06:09.394Z,102079.91
2019-05-14T16:08:40.797Z,102076.73
2019-05-14T16:11:11.743Z,102082.49
2019-05-14T16:13:56.035Z,102089.97
2019-05-14T16:16:40.775Z,102084.77
2019-05-14T16:19:20.275Z,102090.37
2019-05-14T16:21:52.485Z,102094.13
2019-05-14T16:24:25.107Z,102089.45
2019-05-14T16:27:00.136Z,102087.73
2019-05-14T16:29:45.472Z,102091.67
2019-05-14T16:32:25.396Z,102097.20
2019-05-14T16:35:03.569Z,102095.70
2019-05-14T16:37:39.269Z,102092.79
2019-05-14T16:40:13.760Z,102091.78
2019-05-14T16:42:48.482Z,102096.05
2019-05-14T16:45:20.109Z,102089.12
2019-05-14T16:47:54.856Z,102087.33
2019-05-14T16:50:28.635Z,102082.81
2019-05-14T16:53:02.059Z,102079.78
2019-05-14T16:55:38.400Z,102081.71
2019-05-14T16:58:13.026Z,102085.32
2019-05-14T17:00:58.815Z,102083.12
2019-05-14T17:03:41.118Z,102078.98
2019-05-14T17:06:13.154Z,102086.74
2019-05-14T17:08:45.563Z,102080.09
2019-05-14T17:11:18.231Z,102080.41
2019-05-14T17:13:50.067Z,102076.69
2019-05-14T17:16:22.828Z,102082.53
2019-05-14T17:18:55.840Z,102082.64
2019-05-14T17:21:29.850Z,102080.25
2019-05-14T17:24:03.712Z,102087.68
2019-05-14T17:26:35.310Z,102084.58
2019-05-14T17:29:08.783Z,102087.40
2019-05-14T17:31:40.567Z,102084.16
2019-05-14T17:34:12.232Z,102082.25
2019-05-14T17:36:44.388Z,102087.67
2019-05-14T17:39:16.157Z,102088.38
2019-05-14T17:41:49.456Z,102078.34
2019-05-14T17:44:20.868Z,102077.35
2019-05-14T17:46:52.540Z,102074.75
2019-05-14T17:49:24.238Z,102080.17
2019-05-14T17:52:01.466Z,102084.25
2019-05-14T17:54:55.332Z,102084.25
2019-05-14T17:57:37.937Z,102085.76
2019-05-14T18:00:09.750Z,102085.86
2019-05-14T18:02:51.722Z,102085.84
2019-05-14T18:05:30.297Z,102087.55
2019-05-14T18:08:01.918Z,102091.74
2019-05-14T18:10:33.867Z,102089.73
2019-05-14T18:13:08.875Z,102091.83
2019-05-14T18:15:39.451Z,102096.73
2019-05-14T18:18:11.420Z,102093.02
2019-05-14T18:21:09.383Z,102097.23
2019-05-14T18:24:13.564Z,102098.91
2019-05-14T18:27:15.403Z,102097.23
2019-05-14T18:29:59.284Z,102094.19
2019-05-14T18:32:33.417Z,102095.77
2019-05-14T18:35:14.654Z,102098.78
2019-05-14T18:37:56.826Z,102099.25
2019-05-14T18:40:31.946Z,102101.86
2019-05-14T18:43:15.101Z,102099.44
2019-05-14T18:46:18.965Z,102098.45
2019-05-14T18:49:23.650Z,102104.00
2019-05-14T18:52:25.710Z,102112.76
2019-05-14T18:55:30.523Z,102108.63
2019-05-14T18:58:20.747Z,102108.32
2019-05-14T19:01:28.855Z,102108.10
2019-05-14T19:04:43.389Z,102113.31
2019-05-14T19:07:20.359Z,102111.08
2019-05-14T19:09:53.136Z,102116.07
2019-05-14T19:12:28.970Z,102121.50
2019-05-14T19:15:00.786Z,102121.00
2019-05-14T19:17:32.952Z,102121.37
2019-05-14T19:20:08.450Z,102120.25
2019-05-14T19:22:43.626Z,102125.65
2019-05-14T19:25:18.575Z,102122.02
2019-05-14T19:27:51.570Z,102122.83
2019-05-14T19:30:25.782Z,102129.22
2019-05-14T19:32:58.382Z,102127.61
2019-05-14T19:35:31.347Z,102124.95
2019-05-14T19:38:08.771Z,102121.36
2019-05-14T19:40:41.182Z,102116.70
2019-05-14T19:43:13.584Z,102115.48
2019-05-14T19:45:45.861Z,102119.16
2019-05-14T19:48:21.700Z,102120.23
2019-05-14T19:50:58.452Z,102120.73
2019-05-14T19:53:31.762Z,102114.58
2019-05-14T19:56:03.676Z,102116.19
2019-05-14T19:58:41.789Z,102117.77
2019-05-14T20:01:24.123Z,102117.44
2019-05-14T20:04:00.403Z,102112.00
2019-05-14T20:06:38.830Z,102119.02
2019-05-14T20:09:28.088Z,102115.51
2019-05-14T20:12:08.102Z,102111.47
2019-05-14T20:14:48.857Z,102110.02
2019-05-14T20:17:19.962Z,102112.22
2019-05-14T20:19:52.508Z,102106.96
2019-05-14T20:22:24.799Z,102107.36
2019-05-14T20:24:56.359Z,102108.49
2019-05-14T20:27:28.291Z,102100.91
2019-05-14T20:30:01.219Z,102103.78
2019-05-14T20:32:33.301Z,102098.48
2019-05-14T20:35:09.154Z,102099.83
2019-05-14T20:37:43.628Z,102092.59
2019-05-14T20:40:15.520Z,102090.48
2019-05-14T20:42:49.274Z,102081.55
2019-05-14T20:45:21.041Z,102085.23
2019-05-14T20:47:59.195Z,102086.89
2019-05-14T20:50:38.403Z,102076.89
2019-05-14T20:53:09.306Z,102074.69
2019-05-14T20:55:41.393Z,102075.05
2019-05-14T20:58:13.151Z,102074.45
2019-05-14T21:00:44.857Z,102069.42
2019-05-14T21:03:18.708Z,102061.89
2019-05-14T21:05:50.088Z,102067.19
2019-05-14T21:08:21.572Z,102069.42
2019-05-14T21:10:53.417Z,102072.16
2019-05-14T21:13:25.086Z,102063.36
2019-05-14T21:15:56.366Z,102057.76
2019-05-14T21:18:34.840Z,102059.06
2019-05-14T21:21:00.463Z,102061.66
2019-05-14T21:23:32.157Z,102055.59
2019-05-14T21:26:04.704Z,102053.00
2019-05-14T21:28:36.286Z,102047.30
2019-05-14T21:31:10.219Z,102049.27
2019-05-14T21:33:41.024Z,102051.64
2019-05-14T21:36:13.152Z,102044.38
2019-05-14T21:38:44.284Z,102047.23
2019-05-14T21:41:20.146Z,102036.73
2019-05-14T21:43:49.328Z,102033.91
2019-05-14T21:46:20.731Z,102035.98
2019-05-14T21:48:52.021Z,102040.95
2019-05-14T21:51:23.527Z,102039.14
2019-05-14T21:53:55.063Z,102038.25
2019-05-14T21:56:29.017Z,102041.95
2019-05-14T21:59:01.488Z,102032.98
2019-05-14T22:01:33.771Z,102033.79
2019-05-14T22:04:05.286Z,102034.52
2019-05-14T22:06:37.870Z,102031.92
2019-05-14T22:09:10.312Z,102028.42
2019-05-14T22:11:41.611Z,102024.12
2019-05-14T22:14:13.732Z,102031.92
2019-05-14T22:16:45.324Z,102030.48
2019-05-14T22:19:18.903Z,102024.55
2019-05-14T22:21:50.217Z,102018.36
2019-05-14T22:24:21.202Z,102017.55
2019-05-14T22:26:52.716Z,102019.85
2019-05-14T22:29:24.692Z,102015.36
2019-05-14T22:31:58.592Z,102013.30
2019-05-14T22:34:29.889Z,102007.19
2019-05-14T22:37:01.353Z,102011.39
2019-05-14T22:39:33.440Z,102008.56
2019-05-14T22:42:05.045Z,102012.46
2019-05-14T22:44:36.797Z,102008.59
2019-05-14T22:47:08.419Z,102005.23
2019-05-14T22:49:40.811Z,102006.47
2019-05-14T22:52:12.321Z,101998.77
2019-05-14T22:54:44.011Z,101997.38
2019-05-14T22:57:15.371Z,102001.44
2019-05-14T22:59:48.655Z,102002.44
2019-05-14T23:02:20.932Z,102000.00
2019-05-14T23:04:52.001Z,101999.73
2019-05-14T23:07:23.379Z,101996.97
2019-05-14T23:09:55.074Z,101999.97
2019-05-14T23:12:28.721Z,101995.37
2019-05-14T23:14:59.850Z,101990.11
2019-05-14T23:17:30.800Z,101992.04
2019-05-14T23:20:02.819Z,101987.74
2019-05-14T23:22:34.259Z,101990.51
2019-05-14T23:25:08.946Z,101987.58
2019-05-14T23:27:40.773Z,101987.88
2019-05-14T23:30:21.732Z,101987.84
2019-05-14T23:32:53.604Z,101983.48
2019-05-14T23:35:28.199Z,101982.11
2019-05-14T23:37:58.809Z,101971.72
2019-05-14T23:40:30.473Z,101983.47
2019-05-14T23:43:01.746Z,101975.18
2019-05-14T23:45:33.243Z,101967.48
2019-05-14T23:48:04.826Z,101966.02
2019-05-14T23:50:37.872Z,101966.12
2019-05-14T23:53:09.566Z,101964.73
2019-05-14T23:55:41.355Z,101961.78
2019-05-14T23:58:12.516Z,101960.48
